createdAt,value
2018-08-25T00:00:19.175Z,1005.49
2018-08-25T00:00:59.737Z,1005.5
2018-08-25T00:01:40.326Z,1005.47
2018-08-25T00:02:20.890Z,1005.43
2018-08-25T00:03:01.442Z,1005.43
2018-08-25T00:03:42.009Z,1005.42
2018-08-25T00:04:22.577Z,1005.42
2018-08-25T00:05:03.143Z,1005.44
2018-08-25T00:05:43.714Z,1005.41
2018-08-25T00:06:24.270Z,1005.47
2018-08-25T00:07:04.836Z,1005.47
2018-08-25T00:07:45.395Z,1005.49
2018-08-25T00:08:25.969Z,1005.49
2018-08-25T00:09:06.524Z,1005.48
2018-08-25T00:09:47.093Z,1005.49
2018-08-25T00:10:27.662Z,1005.49
2018-08-25T00:11:08.229Z,1005.46
2018-08-25T00:11:48.787Z,1005.49
2018-08-25T00:12:29.345Z,1005.46
2018-08-25T00:13:09.936Z,1005.44
2018-08-25T00:13:50.502Z,1005.43
2018-08-25T00:14:31.067Z,1005.45
2018-08-25T00:15:11.618Z,1005.43
2018-08-25T00:15:52.199Z,1005.4
2018-08-25T00:16:32.759Z,1005.36
2018-08-25T00:17:13.325Z,1005.38
2018-08-25T00:17:53.891Z,1005.33
2018-08-25T00:18:34.549Z,1005.34
2018-08-25T00:19:15.160Z,1005.38
2018-08-25T00:19:55.745Z,1005.34
2018-08-25T00:20:36.302Z,1005.34
2018-08-25T00:21:16.858Z,1005.29
2018-08-25T00:21:57.440Z,1005.24
2018-08-25T00:22:38.004Z,1005.25
2018-08-25T00:23:18.574Z,1005.25
2018-08-25T00:23:59.142Z,1005.21
2018-08-25T00:24:39.706Z,1005.28
2018-08-25T00:25:20.273Z,1005.26
2018-08-25T00:26:00.833Z,1005.3
2018-08-25T00:26:41.397Z,1005.3
2018-08-25T00:27:21.985Z,1005.3
2018-08-25T00:28:02.552Z,1005.31
2018-08-25T00:28:43.106Z,1005.34
2018-08-25T00:29:23.682Z,1005.33
2018-08-25T00:30:04.253Z,1005.28
2018-08-25T00:30:44.821Z,1005.25
2018-08-25T00:31:25.382Z,1005.25
2018-08-25T00:32:05.946Z,1005.25
2018-08-25T00:32:46.511Z,1005.24
2018-08-25T00:33:27.073Z,1005.24
2018-08-25T00:34:07.634Z,1005.26
2018-08-25T00:34:48.214Z,1005.25
2018-08-25T00:35:28.772Z,1005.29
2018-08-25T00:36:09.341Z,1005.29
2018-08-25T00:36:49.925Z,1005.31
2018-08-25T00:37:30.517Z,1005.33
2018-08-25T00:38:11.065Z,1005.34
2018-08-25T00:38:51.629Z,1005.35
2018-08-25T00:39:32.191Z,1005.39
2018-08-25T00:40:12.752Z,1005.37
2018-08-25T00:40:53.307Z,1005.37
2018-08-25T00:41:33.844Z,1005.35
2018-08-25T00:42:14.398Z,1005.4
2018-08-25T00:42:54.976Z,1005.37
2018-08-25T00:43:35.545Z,1005.43
2018-08-25T00:44:16.123Z,1005.4
2018-08-25T00:44:56.693Z,1005.43
2018-08-25T00:45:37.246Z,1005.43
2018-08-25T00:46:17.802Z,1005.44
2018-08-25T00:46:58.348Z,1005.47
2018-08-25T00:47:38.976Z,1005.43
2018-08-25T00:48:19.456Z,1005.41
2018-08-25T00:49:00.045Z,1005.44
2018-08-25T00:49:40.623Z,1005.41
2018-08-25T00:50:21.179Z,1005.4
2018-08-25T00:51:01.761Z,1005.37
2018-08-25T00:51:42.310Z,1005.37
2018-08-25T00:52:22.879Z,1005.34
2018-08-25T00:53:03.463Z,1005.36
2018-08-25T00:53:44.023Z,1005.36
2018-08-25T00:54:24.580Z,1005.34
2018-08-25T00:55:05.145Z,1005.31
2018-08-25T00:55:45.714Z,1005.33
2018-08-25T00:56:26.280Z,1005.31
2018-08-25T00:57:06.846Z,1005.32
2018-08-25T00:57:47.430Z,1005.29
2018-08-25T00:58:27.979Z,1005.3
2018-08-25T00:59:08.543Z,1005.25
2018-08-25T00:59:49.114Z,1005.27
2018-08-25T01:00:29.693Z,1005.32
2018-08-25T01:01:10.256Z,1005.3
2018-08-25T01:01:50.838Z,1005.31
2018-08-25T01:02:31.384Z,1005.3
2018-08-25T01:03:11.949Z,1005.32
2018-08-25T01:03:52.503Z,1005.4
2018-08-25T01:04:33.078Z,1005.39
2018-08-25T01:05:13.639Z,1005.4
2018-08-25T01:05:54.199Z,1005.41
2018-08-25T01:06:34.773Z,1005.38
2018-08-25T01:07:15.328Z,1005.43
2018-08-25T01:07:55.891Z,1005.43
2018-08-25T01:08:36.452Z,1005.43
2018-08-25T01:09:17.016Z,1005.45
2018-08-25T01:09:57.584Z,1005.48
2018-08-25T01:10:38.160Z,1005.47
2018-08-25T01:11:18.735Z,1005.46
2018-08-25T01:11:59.305Z,1005.49
2018-08-25T01:12:39.880Z,1005.49
2018-08-25T01:13:20.441Z,1005.49
2018-08-25T01:14:00.994Z,1005.46
2018-08-25T01:14:41.538Z,1005.45
2018-08-25T01:15:22.109Z,1005.45
2018-08-25T01:16:02.677Z,1005.46
2018-08-25T01:16:43.256Z,1005.47
2018-08-25T01:17:23.811Z,1005.48
2018-08-25T01:18:04.416Z,1005.47
2018-08-25T01:18:44.976Z,1005.45
2018-08-25T01:19:25.562Z,1005.42
2018-08-25T01:20:06.109Z,1005.47
2018-08-25T01:20:46.669Z,1005.46
2018-08-25T01:21:27.242Z,1005.5
2018-08-25T01:22:07.772Z,1005.48
2018-08-25T01:22:48.350Z,1005.49
2018-08-25T01:23:28.904Z,1005.52
2018-08-25T01:24:09.476Z,1005.47
2018-08-25T01:24:50.033Z,1005.45
2018-08-25T01:25:30.583Z,1005.47
2018-08-25T01:26:11.146Z,1005.45
2018-08-25T01:26:51.737Z,1005.43
2018-08-25T01:27:32.303Z,1005.43
2018-08-25T01:28:12.879Z,1005.48
2018-08-25T01:28:53.421Z,1005.43
2018-08-25T01:29:33.989Z,1005.44
2018-08-25T01:30:14.546Z,1005.44
2018-08-25T01:30:55.136Z,1005.45
2018-08-25T01:31:35.754Z,1005.44
2018-08-25T01:32:16.270Z,1005.41
2018-08-25T01:32:56.841Z,1005.43
2018-08-25T01:33:37.404Z,1005.43
2018-08-25T01:34:17.970Z,1005.46
2018-08-25T01:34:58.540Z,1005.42
2018-08-25T01:35:39.110Z,1005.44
2018-08-25T01:36:19.676Z,1005.45
2018-08-25T01:37:00.231Z,1005.39
2018-08-25T01:37:40.793Z,1005.44
2018-08-25T01:38:21.464Z,1005.44
2018-08-25T01:39:02.046Z,1005.44
2018-08-25T01:39:42.621Z,1005.41
2018-08-25T01:40:23.182Z,1005.42
2018-08-25T01:41:03.727Z,1005.48
2018-08-25T01:41:44.355Z,1005.48
2018-08-25T01:42:24.912Z,1005.51
2018-08-25T01:43:05.449Z,1005.51
2018-08-25T01:43:46.011Z,1005.54
2018-08-25T01:44:26.577Z,1005.52
2018-08-25T01:45:07.158Z,1005.52
2018-08-25T01:45:47.739Z,1005.5
2018-08-25T01:46:28.301Z,1005.48
2018-08-25T01:47:08.881Z,1005.46
2018-08-25T01:47:49.469Z,1005.48
2018-08-25T01:48:30.039Z,1005.46
2018-08-25T01:49:10.634Z,1005.45
2018-08-25T01:49:51.188Z,1005.42
2018-08-25T01:50:31.777Z,1005.38
2018-08-25T01:51:12.338Z,1005.35
2018-08-25T01:51:52.910Z,1005.35
2018-08-25T01:52:33.473Z,1005.35
2018-08-25T01:53:14.028Z,1005.35
2018-08-25T01:53:54.584Z,1005.32
2018-08-25T01:54:35.179Z,1005.33
2018-08-25T01:55:15.778Z,1005.31
2018-08-25T01:55:56.325Z,1005.32
2018-08-25T01:56:36.899Z,1005.34
2018-08-25T01:57:17.484Z,1005.33
2018-08-25T01:57:58.301Z,1005.34
2018-08-25T01:58:38.692Z,1005.41
2018-08-25T01:59:19.258Z,1005.4
2018-08-25T01:59:59.823Z,1005.39
2018-08-25T02:00:40.373Z,1005.42
2018-08-25T02:01:20.952Z,1005.43
2018-08-25T02:02:01.538Z,1005.35
2018-08-25T02:02:42.151Z,1005.4
2018-08-25T02:03:22.700Z,1005.38
2018-08-25T02:04:03.263Z,1005.36
2018-08-25T02:04:43.854Z,1005.38
2018-08-25T02:05:24.413Z,1005.4
2018-08-25T02:06:05.024Z,1005.34
2018-08-25T02:06:45.596Z,1005.36
2018-08-25T02:07:26.153Z,1005.33
2018-08-25T02:08:06.725Z,1005.35
2018-08-25T02:08:47.315Z,1005.31
2018-08-25T02:09:27.909Z,1005.29
2018-08-25T02:10:08.468Z,1005.28
2018-08-25T02:10:49.034Z,1005.24
2018-08-25T02:11:29.609Z,1005.24
2018-08-25T02:12:10.163Z,1005.25
2018-08-25T02:12:50.766Z,1005.19
2018-08-25T02:13:31.336Z,1005.24
2018-08-25T02:14:11.892Z,1005.21
2018-08-25T02:14:52.459Z,1005.21
2018-08-25T02:15:33.031Z,1005.16
2018-08-25T02:16:13.582Z,1005.2
2018-08-25T02:16:54.149Z,1005.17
2018-08-25T02:17:34.725Z,1005.18
2018-08-25T02:18:15.285Z,1005.17
2018-08-25T02:18:55.880Z,1005.14
2018-08-25T02:19:36.433Z,1005.17
2018-08-25T02:20:16.983Z,1005.15
2018-08-25T02:20:57.545Z,1005.14
2018-08-25T02:21:38.128Z,1005.2
2018-08-25T02:22:18.695Z,1005.18
2018-08-25T02:22:59.282Z,1005.16
2018-08-25T02:23:39.876Z,1005.13
2018-08-25T02:24:20.454Z,1005.15
2018-08-25T02:25:01.012Z,1005.13
2018-08-25T02:25:41.593Z,1005.15
2018-08-25T02:26:22.140Z,1005.13
2018-08-25T02:27:02.755Z,1005.15
2018-08-25T02:27:43.317Z,1005.18
2018-08-25T02:28:23.973Z,1005.2
2018-08-25T02:29:04.455Z,1005.21
2018-08-25T02:29:45.014Z,1005.24
2018-08-25T02:30:25.570Z,1005.23
2018-08-25T02:31:06.157Z,1005.19
2018-08-25T02:31:46.728Z,1005.22
2018-08-25T02:32:27.295Z,1005.22
2018-08-25T02:33:07.859Z,1005.19
2018-08-25T02:33:48.420Z,1005.23
2018-08-25T02:34:29.000Z,1005.24
2018-08-25T02:35:09.776Z,1005.19
2018-08-25T02:35:50.332Z,1005.23
2018-08-25T02:36:30.890Z,1005.23
2018-08-25T02:37:11.464Z,1005.23
2018-08-25T02:37:52.015Z,1005.25
2018-08-25T02:38:32.675Z,1005.21
2018-08-25T02:39:13.145Z,1005.17
2018-08-25T02:39:53.710Z,1005.18
2018-08-25T02:40:34.289Z,1005.16
2018-08-25T02:41:14.840Z,1005.12
2018-08-25T02:41:55.397Z,1005.17
2018-08-25T02:42:35.982Z,1005.14
2018-08-25T02:43:16.556Z,1005.1
2018-08-25T02:43:57.119Z,1005.14
2018-08-25T02:44:37.682Z,1005.1
2018-08-25T02:45:18.240Z,1005.11
2018-08-25T02:45:58.827Z,1005.09
2018-08-25T02:46:39.406Z,1005.07
2018-08-25T02:47:19.980Z,1005.09
2018-08-25T02:48:00.613Z,1005.05
2018-08-25T02:48:41.174Z,1005.05
2018-08-25T02:49:21.733Z,1005.04
2018-08-25T02:50:02.296Z,1005.05
2018-08-25T02:50:42.890Z,1005.04
2018-08-25T02:51:23.454Z,1005.03
2018-08-25T02:52:04.006Z,1005.01
2018-08-25T02:52:44.571Z,1005.01
2018-08-25T02:53:25.136Z,1005
2018-08-25T02:54:05.695Z,1004.96
2018-08-25T02:54:46.256Z,1004.98
2018-08-25T02:55:26.817Z,1004.97
2018-08-25T02:56:07.394Z,1004.97
2018-08-25T02:56:47.947Z,1005.01
2018-08-25T02:57:28.495Z,1005.04
2018-08-25T02:58:09.047Z,1005.01
2018-08-25T02:58:49.593Z,1005.04
2018-08-25T02:59:30.162Z,1005.01
2018-08-25T03:00:10.726Z,1005.06
2018-08-25T03:00:51.285Z,1005.07
2018-08-25T03:01:31.898Z,1005.08
2018-08-25T03:02:12.452Z,1005.07
2018-08-25T03:02:53.031Z,1005.04
2018-08-25T03:03:33.594Z,1005
2018-08-25T03:04:14.157Z,1005.06
2018-08-25T03:04:54.727Z,1005.05
2018-08-25T03:05:35.298Z,1005.05
2018-08-25T03:06:15.854Z,1005.11
2018-08-25T03:06:56.410Z,1005.03
2018-08-25T03:07:37.005Z,1005.02
2018-08-25T03:08:17.568Z,1005.03
2018-08-25T03:08:58.137Z,1005.03
2018-08-25T03:09:38.703Z,1005.03
2018-08-25T03:10:19.275Z,1005.01
2018-08-25T03:10:59.839Z,1004.97
2018-08-25T03:11:40.399Z,1005.04
2018-08-25T03:12:21.014Z,1005
2018-08-25T03:13:01.622Z,1005.02
2018-08-25T03:13:42.251Z,1005
2018-08-25T03:14:22.759Z,1004.99
2018-08-25T03:15:03.324Z,1004.99
2018-08-25T03:15:43.896Z,1004.95
2018-08-25T03:16:24.498Z,1004.95
2018-08-25T03:17:05.078Z,1004.99
2018-08-25T03:17:45.660Z,1004.98
2018-08-25T03:18:26.229Z,1004.98
2018-08-25T03:19:06.791Z,1004.95
2018-08-25T03:19:47.341Z,1005.01
2018-08-25T03:20:27.925Z,1004.96
2018-08-25T03:21:08.490Z,1004.98
2018-08-25T03:21:49.064Z,1004.97
2018-08-25T03:22:29.612Z,1004.94
2018-08-25T03:23:10.169Z,1004.9
2018-08-25T03:23:50.747Z,1004.91
2018-08-25T03:24:31.322Z,1004.88
2018-08-25T03:25:11.880Z,1004.85
2018-08-25T03:25:52.444Z,1004.85
2018-08-25T03:26:33.024Z,1004.82
2018-08-25T03:27:13.595Z,1004.82
2018-08-25T03:27:54.161Z,1004.83
2018-08-25T03:28:34.743Z,1004.83
2018-08-25T03:29:15.319Z,1004.8
2018-08-25T03:29:55.903Z,1004.83
2018-08-25T03:30:36.493Z,1004.86
2018-08-25T03:31:17.046Z,1004.81
2018-08-25T03:31:57.624Z,1004.81
2018-08-25T03:32:38.204Z,1004.8
2018-08-25T03:33:18.788Z,1004.75
2018-08-25T03:33:59.355Z,1004.7
2018-08-25T03:34:39.893Z,1004.73
2018-08-25T03:35:20.438Z,1004.71
2018-08-25T03:36:01.007Z,1004.66
2018-08-25T03:36:41.592Z,1004.7
2018-08-25T03:37:22.157Z,1004.67
2018-08-25T03:38:02.732Z,1004.65
2018-08-25T03:38:43.303Z,1004.64
2018-08-25T03:39:23.866Z,1004.65
2018-08-25T03:40:04.444Z,1004.65
2018-08-25T03:40:45.041Z,1004.65
2018-08-25T03:41:25.617Z,1004.72
2018-08-25T03:42:06.177Z,1004.72
2018-08-25T03:42:46.729Z,1004.69
2018-08-25T03:43:27.282Z,1004.74
2018-08-25T03:44:07.862Z,1004.68
2018-08-25T03:44:48.424Z,1004.71
2018-08-25T03:45:29.009Z,1004.7
2018-08-25T03:46:09.541Z,1004.7
2018-08-25T03:46:50.099Z,1004.74
2018-08-25T03:47:30.680Z,1004.71
2018-08-25T03:48:11.243Z,1004.74
2018-08-25T03:48:51.822Z,1004.73
2018-08-25T03:49:32.404Z,1004.72
2018-08-25T03:50:12.978Z,1004.74
2018-08-25T03:50:53.536Z,1004.77
2018-08-25T03:51:34.123Z,1004.73
2018-08-25T03:52:14.690Z,1004.77
2018-08-25T03:52:55.257Z,1004.76
2018-08-25T03:53:35.827Z,1004.75
2018-08-25T03:54:16.381Z,1004.75
2018-08-25T03:54:56.945Z,1004.73
2018-08-25T03:55:37.533Z,1004.78
2018-08-25T03:56:18.093Z,1004.79
2018-08-25T03:56:58.667Z,1004.8
2018-08-25T03:57:39.242Z,1004.8
2018-08-25T03:58:19.833Z,1004.8
2018-08-25T03:59:00.390Z,1004.78
2018-08-25T03:59:40.959Z,1004.77
2018-08-25T04:00:21.556Z,1004.77
2018-08-25T04:01:02.123Z,1004.74
2018-08-25T04:01:42.845Z,1004.74
2018-08-25T04:02:23.272Z,1004.72
2018-08-25T04:03:03.818Z,1004.67
2018-08-25T04:03:44.370Z,1004.63
2018-08-25T04:04:24.929Z,1004.68
2018-08-25T04:05:05.490Z,1004.67
2018-08-25T04:05:46.077Z,1004.69
2018-08-25T04:06:26.686Z,1004.64
2018-08-25T04:07:07.245Z,1004.67
2018-08-25T04:07:47.797Z,1004.64
2018-08-25T04:08:28.388Z,1004.63
2018-08-25T04:09:08.964Z,1004.64
2018-08-25T04:09:49.528Z,1004.63
2018-08-25T04:10:30.114Z,1004.62
2018-08-25T04:11:10.669Z,1004.59
2018-08-25T04:11:51.225Z,1004.61
2018-08-25T04:12:31.831Z,1004.59
2018-08-25T04:13:12.494Z,1004.59
2018-08-25T04:13:52.991Z,1004.56
2018-08-25T04:14:33.556Z,1004.63
2018-08-25T04:15:14.114Z,1004.6
2018-08-25T04:15:54.681Z,1004.6
2018-08-25T04:16:35.252Z,1004.64
2018-08-25T04:17:15.798Z,1004.62
2018-08-25T04:17:56.370Z,1004.64
2018-08-25T04:18:36.933Z,1004.65
2018-08-25T04:19:17.497Z,1004.68
2018-08-25T04:19:58.067Z,1004.67
2018-08-25T04:20:38.620Z,1004.7
2018-08-25T04:21:19.183Z,1004.7
2018-08-25T04:21:59.765Z,1004.74
2018-08-25T04:22:40.317Z,1004.7
2018-08-25T04:23:20.919Z,1004.7
2018-08-25T04:24:01.477Z,1004.72
2018-08-25T04:24:42.078Z,1004.68
2018-08-25T04:25:22.734Z,1004.67
2018-08-25T04:26:03.412Z,1004.67
2018-08-25T04:26:44.023Z,1004.66
2018-08-25T04:27:24.598Z,1004.64
2018-08-25T04:28:05.203Z,1004.62
2018-08-25T04:28:45.809Z,1004.63
2018-08-25T04:29:26.308Z,1004.68
2018-08-25T04:30:07.003Z,1004.64
2018-08-25T04:30:47.711Z,1004.68
2018-08-25T04:31:28.187Z,1004.66
2018-08-25T04:32:08.753Z,1004.65
2018-08-25T04:32:49.310Z,1004.66
2018-08-25T04:33:29.944Z,1004.67
2018-08-25T04:34:10.445Z,1004.64
2018-08-25T04:34:51.004Z,1004.66
2018-08-25T04:35:31.584Z,1004.65
2018-08-25T04:36:12.135Z,1004.68
2018-08-25T04:36:52.730Z,1004.66
2018-08-25T04:37:33.295Z,1004.63
2018-08-25T04:38:13.908Z,1004.63
2018-08-25T04:38:54.482Z,1004.64
2018-08-25T04:39:35.068Z,1004.64
2018-08-25T04:40:15.631Z,1004.65
2018-08-25T04:40:56.286Z,1004.58
2018-08-25T04:41:36.848Z,1004.63
2018-08-25T04:42:17.397Z,1004.59
2018-08-25T04:42:57.982Z,1004.6
2018-08-25T04:43:38.552Z,1004.6
2018-08-25T04:44:19.132Z,1004.54
2018-08-25T04:44:59.710Z,1004.56
2018-08-25T04:45:40.268Z,1004.6
2018-08-25T04:46:20.842Z,1004.58
2018-08-25T04:47:01.382Z,1004.54
2018-08-25T04:47:41.934Z,1004.56
2018-08-25T04:48:22.521Z,1004.58
2018-08-25T04:49:03.091Z,1004.62
2018-08-25T04:49:43.652Z,1004.57
2018-08-25T04:50:24.207Z,1004.57
2018-08-25T04:51:04.794Z,1004.59
2018-08-25T04:51:45.374Z,1004.57
2018-08-25T04:52:25.956Z,1004.55
2018-08-25T04:53:06.528Z,1004.56
2018-08-25T04:53:47.091Z,1004.56
2018-08-25T04:54:27.660Z,1004.57
2018-08-25T04:55:08.233Z,1004.51
2018-08-25T04:55:48.806Z,1004.51
2018-08-25T04:56:29.365Z,1004.48
2018-08-25T04:57:09.936Z,1004.48
2018-08-25T04:57:50.502Z,1004.46
2018-08-25T04:58:31.050Z,1004.46
2018-08-25T04:59:11.619Z,1004.47
2018-08-25T04:59:52.185Z,1004.45
2018-08-25T05:00:32.753Z,1004.49
2018-08-25T05:01:13.322Z,1004.51
2018-08-25T05:01:53.917Z,1004.49
2018-08-25T05:02:34.452Z,1004.46
2018-08-25T05:03:15.045Z,1004.51
2018-08-25T05:03:55.638Z,1004.48
2018-08-25T05:04:36.204Z,1004.46
2018-08-25T05:05:16.792Z,1004.44
2018-08-25T05:05:57.353Z,1004.44
2018-08-25T05:06:37.909Z,1004.43
2018-08-25T05:07:18.478Z,1004.42
2018-08-25T05:07:59.044Z,1004.42
2018-08-25T05:08:39.595Z,1004.43
2018-08-25T05:09:20.157Z,1004.46
2018-08-25T05:10:00.722Z,1004.44
2018-08-25T05:10:41.288Z,1004.47
2018-08-25T05:11:21.853Z,1004.45
2018-08-25T05:12:02.440Z,1004.47
2018-08-25T05:12:43.009Z,1004.48
2018-08-25T05:13:23.575Z,1004.5
2018-08-25T05:14:04.136Z,1004.48
2018-08-25T05:14:44.700Z,1004.52
2018-08-25T05:15:25.251Z,1004.5
2018-08-25T05:16:05.849Z,1004.49
2018-08-25T05:16:46.426Z,1004.49
2018-08-25T05:17:26.986Z,1004.55
2018-08-25T05:18:07.546Z,1004.52
2018-08-25T05:18:48.114Z,1004.57
2018-08-25T05:19:28.699Z,1004.53
2018-08-25T05:20:09.249Z,1004.53
2018-08-25T05:20:49.825Z,1004.56
2018-08-25T05:21:30.384Z,1004.53
2018-08-25T05:22:10.952Z,1004.54
2018-08-25T05:22:51.520Z,1004.51
2018-08-25T05:23:32.102Z,1004.58
2018-08-25T05:24:12.669Z,1004.6
2018-08-25T05:24:53.247Z,1004.59
2018-08-25T05:25:33.821Z,1004.58
2018-08-25T05:26:14.399Z,1004.6
2018-08-25T05:26:54.982Z,1004.6
2018-08-25T05:27:35.561Z,1004.59
2018-08-25T05:28:16.114Z,1004.59
2018-08-25T05:28:56.665Z,1004.58
2018-08-25T05:29:37.236Z,1004.58
2018-08-25T05:30:17.787Z,1004.57
2018-08-25T05:30:58.351Z,1004.6
2018-08-25T05:31:38.920Z,1004.57
2018-08-25T05:32:19.493Z,1004.55
2018-08-25T05:33:00.053Z,1004.55
2018-08-25T05:33:40.635Z,1004.56
2018-08-25T05:34:21.201Z,1004.55
2018-08-25T05:35:01.767Z,1004.57
2018-08-25T05:35:42.324Z,1004.57
2018-08-25T05:36:22.888Z,1004.57
2018-08-25T05:37:03.448Z,1004.53
2018-08-25T05:37:44.023Z,1004.59
2018-08-25T05:38:24.592Z,1004.58
2018-08-25T05:39:05.154Z,1004.59
2018-08-25T05:39:45.726Z,1004.58
2018-08-25T05:40:26.282Z,1004.58
2018-08-25T05:41:06.844Z,1004.59
2018-08-25T05:41:47.407Z,1004.55
2018-08-25T05:42:28.006Z,1004.59
2018-08-25T05:43:08.708Z,1004.59
2018-08-25T05:43:49.270Z,1004.62
2018-08-25T05:44:29.829Z,1004.6
2018-08-25T05:45:10.416Z,1004.6
2018-08-25T05:45:50.979Z,1004.63
2018-08-25T05:46:31.555Z,1004.61
2018-08-25T05:47:12.124Z,1004.59
2018-08-25T05:47:52.681Z,1004.61
2018-08-25T05:48:33.250Z,1004.61
2018-08-25T05:49:13.839Z,1004.59
2018-08-25T05:49:54.426Z,1004.58
2018-08-25T05:50:35.020Z,1004.58
2018-08-25T05:51:15.590Z,1004.58
2018-08-25T05:51:56.177Z,1004.6
2018-08-25T05:52:36.761Z,1004.56
2018-08-25T05:53:17.348Z,1004.57
2018-08-25T05:53:57.904Z,1004.58
2018-08-25T05:54:38.464Z,1004.57
2018-08-25T05:55:19.056Z,1004.53
2018-08-25T05:56:01.610Z,1004.53
2018-08-25T05:56:42.291Z,1004.5
2018-08-25T05:57:24.604Z,1004.49
2018-08-25T05:58:06.688Z,1004.54
2018-08-25T05:58:48.821Z,1004.5
2018-08-25T05:59:32.131Z,1004.51
2018-08-25T06:00:16.325Z,1004.5
2018-08-25T06:00:58.648Z,1004.53
2018-08-25T06:01:40.941Z,1004.55
2018-08-25T06:02:25.860Z,1004.54
2018-08-25T06:03:07.193Z,1004.54
2018-08-25T06:03:48.996Z,1004.51
2018-08-25T06:04:31.723Z,1004.51
2018-08-25T06:05:13.677Z,1004.49
2018-08-25T06:05:55.864Z,1004.55
2018-08-25T06:06:37.369Z,1004.46
2018-08-25T06:07:19.191Z,1004.46
2018-08-25T06:08:00.652Z,1004.47
2018-08-25T06:08:42.678Z,1004.52
2018-08-25T06:09:24.084Z,1004.52
2018-08-25T06:10:05.577Z,1004.52
2018-08-25T06:10:47.448Z,1004.49
2018-08-25T06:11:31.883Z,1004.49
2018-08-25T06:12:14.192Z,1004.5
2018-08-25T06:12:56.876Z,1004.52
2018-08-25T06:13:38.375Z,1004.55
2018-08-25T06:14:20.688Z,1004.53
2018-08-25T06:15:03.910Z,1004.53
2018-08-25T06:15:45.269Z,1004.52
2018-08-25T06:16:28.209Z,1004.48
2018-08-25T06:17:10.241Z,1004.52
2018-08-25T06:17:51.632Z,1004.45
2018-08-25T06:18:33.846Z,1004.49
2018-08-25T06:19:20.836Z,1004.45
2018-08-25T06:20:02.279Z,1004.49
2018-08-25T06:20:43.666Z,1004.48
2018-08-25T06:21:25.716Z,1004.53
2018-08-25T06:22:10.348Z,1004.51
2018-08-25T06:22:55.160Z,1004.52
2018-08-25T06:23:37.462Z,1004.52
2018-08-25T06:24:21.440Z,1004.55
2018-08-25T06:25:03.654Z,1004.53
2018-08-25T06:25:44.878Z,1004.59
2018-08-25T06:26:26.167Z,1004.59
2018-08-25T06:27:08.042Z,1004.57
2018-08-25T06:27:48.612Z,1004.54
2018-08-25T06:28:29.175Z,1004.57
2018-08-25T06:29:09.738Z,1004.52
2018-08-25T06:29:50.387Z,1004.49
2018-08-25T06:30:30.868Z,1004.53
2018-08-25T06:31:11.425Z,1004.53
2018-08-25T06:31:51.977Z,1004.58
2018-08-25T06:32:32.562Z,1004.51
2018-08-25T06:33:13.124Z,1004.5
2018-08-25T06:33:53.694Z,1004.58
2018-08-25T06:34:34.257Z,1004.54
2018-08-25T06:35:14.890Z,1004.5
2018-08-25T06:35:55.543Z,1004.48
2018-08-25T06:36:36.110Z,1004.5
2018-08-25T06:37:16.618Z,1004.47
2018-08-25T06:37:57.198Z,1004.49
2018-08-25T06:38:37.766Z,1004.47
2018-08-25T06:39:18.328Z,1004.45
2018-08-25T06:39:58.922Z,1004.46
2018-08-25T06:40:39.503Z,1004.42
2018-08-25T06:41:20.101Z,1004.45
2018-08-25T06:42:00.667Z,1004.47
2018-08-25T06:42:41.370Z,1004.47
2018-08-25T06:43:21.840Z,1004.49
2018-08-25T06:44:02.406Z,1004.47
2018-08-25T06:44:42.987Z,1004.47
2018-08-25T06:45:23.550Z,1004.52
2018-08-25T06:46:04.128Z,1004.51
2018-08-25T06:46:44.694Z,1004.59
2018-08-25T06:47:25.290Z,1004.58
2018-08-25T06:48:05.864Z,1004.55
2018-08-25T06:48:46.419Z,1004.61
2018-08-25T06:49:27.020Z,1004.62
2018-08-25T06:50:07.595Z,1004.61
2018-08-25T06:50:48.179Z,1004.63
2018-08-25T06:51:28.720Z,1004.64
2018-08-25T06:52:09.314Z,1004.65
2018-08-25T06:52:49.952Z,1004.67
2018-08-25T06:53:30.510Z,1004.68
2018-08-25T06:54:11.113Z,1004.71
2018-08-25T06:54:51.675Z,1004.72
2018-08-25T06:55:32.237Z,1004.76
2018-08-25T06:56:12.822Z,1004.76
2018-08-25T06:56:53.412Z,1004.77
2018-08-25T06:57:33.977Z,1004.75
2018-08-25T06:58:14.562Z,1004.75
2018-08-25T06:58:55.535Z,1004.78
2018-08-25T06:59:36.212Z,1004.8
2018-08-25T07:00:16.666Z,1004.76
2018-08-25T07:00:57.281Z,1004.78
2018-08-25T07:01:37.859Z,1004.82
2018-08-25T07:02:18.428Z,1004.76
2018-08-25T07:02:59.097Z,1004.79
2018-08-25T07:03:39.697Z,1004.77
2018-08-25T07:04:20.350Z,1004.75
2018-08-25T07:05:01.207Z,1004.7
2018-08-25T07:05:41.942Z,1004.8
2018-08-25T07:06:22.532Z,1004.77
2018-08-25T07:07:03.144Z,1004.75
2018-08-25T07:07:43.751Z,1004.79
2018-08-25T07:08:24.381Z,1004.85
2018-08-25T07:09:04.947Z,1004.78
2018-08-25T07:09:45.522Z,1004.78
2018-08-25T07:10:26.156Z,1004.79
2018-08-25T07:11:06.891Z,1004.77
2018-08-25T07:11:47.452Z,1004.75
2018-08-25T07:12:28.063Z,1004.76
2018-08-25T07:13:08.646Z,1004.8
2018-08-25T07:13:49.215Z,1004.77
2018-08-25T07:14:29.781Z,1004.8
2018-08-25T07:15:10.350Z,1004.78
2018-08-25T07:15:50.932Z,1004.84
2018-08-25T07:16:31.496Z,1004.83
2018-08-25T07:17:12.096Z,1004.82
2018-08-25T07:17:52.685Z,1004.81
2018-08-25T07:18:33.253Z,1004.81
2018-08-25T07:19:13.949Z,1004.82
2018-08-25T07:19:54.523Z,1004.81
2018-08-25T07:20:35.143Z,1004.81
2018-08-25T07:21:16.028Z,1004.8
2018-08-25T07:21:56.593Z,1004.8
2018-08-25T07:22:37.176Z,1004.8
2018-08-25T07:23:17.748Z,1004.79
2018-08-25T07:23:58.373Z,1004.81
2018-08-25T07:24:38.938Z,1004.84
2018-08-25T07:25:19.556Z,1004.82
2018-08-25T07:26:00.213Z,1004.83
2018-08-25T07:26:40.701Z,1004.84
2018-08-25T07:27:21.271Z,1004.85
2018-08-25T07:28:01.881Z,1004.89
2018-08-25T07:28:42.419Z,1004.86
2018-08-25T07:29:22.986Z,1004.85
2018-08-25T07:30:03.540Z,1004.88
2018-08-25T07:30:44.111Z,1004.85
2018-08-25T07:31:24.678Z,1004.88
2018-08-25T07:32:05.321Z,1004.86
2018-08-25T07:32:45.881Z,1004.84
2018-08-25T07:33:26.481Z,1004.82
2018-08-25T07:34:07.064Z,1004.81
2018-08-25T07:34:47.658Z,1004.78
2018-08-25T07:35:28.216Z,1004.79
2018-08-25T07:36:08.764Z,1004.75
2018-08-25T07:36:49.338Z,1004.79
2018-08-25T07:37:29.908Z,1004.76
2018-08-25T07:38:10.555Z,1004.76
2018-08-25T07:38:51.029Z,1004.74
2018-08-25T07:39:31.597Z,1004.78
2018-08-25T07:40:12.162Z,1004.76
2018-08-25T07:40:52.763Z,1004.73
2018-08-25T07:41:33.291Z,1004.76
2018-08-25T07:42:13.872Z,1004.75
2018-08-25T07:42:54.464Z,1004.74
2018-08-25T07:43:35.015Z,1004.75
2018-08-25T07:44:15.637Z,1004.71
2018-08-25T07:44:56.251Z,1004.74
2018-08-25T07:45:36.919Z,1004.76
2018-08-25T07:46:17.490Z,1004.76
2018-08-25T07:46:58.076Z,1004.75
2018-08-25T07:47:38.644Z,1004.76
2018-08-25T07:48:19.210Z,1004.76
2018-08-25T07:48:59.782Z,1004.76
2018-08-25T07:49:40.431Z,1004.74
2018-08-25T07:50:20.910Z,1004.78
2018-08-25T07:51:01.554Z,1004.74
2018-08-25T07:51:42.093Z,1004.77
2018-08-25T07:52:22.661Z,1004.78
2018-08-25T07:53:03.241Z,1004.83
2018-08-25T07:53:43.827Z,1004.82
2018-08-25T07:54:24.355Z,1004.79
2018-08-25T07:55:04.914Z,1004.81
2018-08-25T07:55:45.513Z,1004.76
2018-08-25T07:56:26.088Z,1004.84
2018-08-25T07:57:06.631Z,1004.72
2018-08-25T07:57:47.191Z,1004.74
2018-08-25T07:58:27.781Z,1004.75
2018-08-25T07:59:08.448Z,1004.82
2018-08-25T07:59:48.910Z,1004.74
2018-08-25T08:00:29.480Z,1004.76
2018-08-25T08:01:10.065Z,1004.7
2018-08-25T08:01:50.645Z,1004.77
2018-08-25T08:02:31.215Z,1004.74
2018-08-25T08:03:11.777Z,1004.69
2018-08-25T08:03:52.364Z,1004.74
2018-08-25T08:04:32.942Z,1004.72
2018-08-25T08:05:13.507Z,1004.73
2018-08-25T08:05:54.132Z,1004.74
2018-08-25T08:06:34.757Z,1004.72
2018-08-25T08:07:15.339Z,1004.7
2018-08-25T08:07:55.922Z,1004.7
2018-08-25T08:08:36.456Z,1004.65
2018-08-25T08:09:17.023Z,1004.68
2018-08-25T08:09:57.591Z,1004.7
2018-08-25T08:10:38.168Z,1004.7
2018-08-25T08:11:18.773Z,1004.64
2018-08-25T08:11:59.450Z,1004.62
2018-08-25T08:12:39.925Z,1004.6
2018-08-25T08:13:20.505Z,1004.66
2018-08-25T08:14:01.082Z,1004.65